sensor_id;sensor_type;location;lat;lon;timestamp;P1;durP1;ratioP1;P2;durP2;ratioP2
41532;SDS011;27262;-35.248;149.138;2023-01-25T00:01:12;1.20;;;1.00;;
41532;SDS011;27262;-35.248;149.138;2023-01-25T00:03:42;1.60;;;1.13;;
41532;SDS011;27262;-35.248;149.138;2023-01-25T00:06:12;1.45;;;1.05;;
41532;SDS011;27262;-35.248;149.138;2023-01-25T00:08:43;2.13;;;1.20;;
41532;SDS011;27262;-35.248;149.138;2023-01-25T00:11:17;1.95;;;1.23;;
41532;SDS011;27262;-35.248;149.138;2023-01-25T00:13:48;2.30;;;1.45;;
41532;SDS011;27262;-35.248;149.138;2023-01-25T00:16:21;3.70;;;1.30;;
41532;SDS011;27262;-35.248;149.138;2023-01-25T00:18:51;1.83;;;1.20;;
41532;SDS011;27262;-35.248;149.138;2023-01-25T00:21:22;1.27;;;1.17;;
41532;SDS011;27262;-35.248;149.138;2023-01-25T00:23:54;2.25;;;1.23;;
41532;SDS011;27262;-35.248;149.138;2023-01-25T00:26:30;1.25;;;1.00;;
41532;SDS011;27262;-35.248;149.138;2023-01-25T00:29:02;1.60;;;1.25;;
41532;SDS011;27262;-35.248;149.138;2023-01-25T00:31:48;1.60;;;1.05;;
41532;SDS011;27262;-35.248;149.138;2023-01-25T00:37:40;2.58;;;1.40;;
41532;SDS011;27262;-35.248;149.138;2023-01-25T00:40:17;2.05;;;1.38;;
41532;SDS011;27262;-35.248;149.138;2023-01-25T00:42:52;1.52;;;1.00;;
41532;SDS011;27262;-35.248;149.138;2023-01-25T00:45:30;8.07;;;2.50;;
41532;SDS011;27262;-35.248;149.138;2023-01-25T00:48:04;5.05;;;1.80;;
41532;SDS011;27262;-35.248;149.138;2023-01-25T00:50:43;8.05;;;2.40;;
41532;SDS011;27262;-35.248;149.138;2023-01-25T00:53:19;6.13;;;1.92;;
41532;SDS011;27262;-35.248;149.138;2023-01-25T00:55:52;9.27;;;2.72;;
41532;SDS011;27262;-35.248;149.138;2023-01-25T00:58:26;8.48;;;2.70;;
41532;SDS011;27262;-35.248;149.138;2023-01-25T01:01:00;7.03;;;2.60;;
41532;SDS011;27262;-35.248;149.138;2023-01-25T01:03:37;6.35;;;2.17;;
41532;SDS011;27262;-35.248;149.138;2023-01-25T01:06:23;8.13;;;2.33;;
41532;SDS011;27262;-35.248;149.138;2023-01-25T01:08:57;6.25;;;2.35;;
41532;SDS011;27262;-35.248;149.138;2023-01-25T01:11:36;7.18;;;2.10;;
41532;SDS011;27262;-35.248;149.138;2023-01-25T01:14:28;5.53;;;2.08;;
41532;SDS011;27262;-35.248;149.138;2023-01-25T01:17:02;3.70;;;1.75;;
41532;SDS011;27262;-35.248;149.138;2023-01-25T01:19:38;7.55;;;2.47;;
41532;SDS011;27262;-35.248;149.138;2023-01-25T01:22:09;6.30;;;2.20;;
41532;SDS011;27262;-35.248;149.138;2023-01-25T01:24:46;5.63;;;2.00;;
41532;SDS011;27262;-35.248;149.138;2023-01-25T01:27:19;3.65;;;2.10;;
41532;SDS011;27262;-35.248;149.138;2023-01-25T01:29:50;8.18;;;2.30;;
41532;SDS011;27262;-35.248;149.138;2023-01-25T01:32:20;3.42;;;2.05;;
41532;SDS011;27262;-35.248;149.138;2023-01-25T01:34:51;6.13;;;2.30;;
41532;SDS011;27262;-35.248;149.138;2023-01-25T01:37:24;7.38;;;2.20;;
41532;SDS011;27262;-35.248;149.138;2023-01-25T01:39:57;5.43;;;2.42;;
41532;SDS011;27262;-35.248;149.138;2023-01-25T01:42:27;6.50;;;2.05;;
41532;SDS011;27262;-35.248;149.138;2023-01-25T01:45:44;6.90;;;1.83;;
41532;SDS011;27262;-35.248;149.138;2023-01-25T01:54:24;7.03;;;2.67;;
41532;SDS011;27262;-35.248;149.138;2023-01-25T01:57:10;4.28;;;1.90;;
41532;SDS011;27262;-35.248;149.138;2023-01-25T01:59:57;7.97;;;2.80;;
41532;SDS011;27262;-35.248;149.138;2023-01-25T02:02:40;5.82;;;2.40;;
41532;SDS011;27262;-35.248;149.138;2023-01-25T02:05:32;10.27;;;2.72;;
41532;SDS011;27262;-35.248;149.138;2023-01-25T02:08:12;6.22;;;2.50;;
41532;SDS011;27262;-35.248;149.138;2023-01-25T02:10:56;7.53;;;2.47;;
41532;SDS011;27262;-35.248;149.138;2023-01-25T02:13:34;6.75;;;2.65;;
41532;SDS011;27262;-35.248;149.138;2023-01-25T02:16:13;6.97;;;2.33;;
41532;SDS011;27262;-35.248;149.138;2023-01-25T02:18:47;5.20;;;2.22;;
41532;SDS011;27262;-35.248;149.138;2023-01-25T02:21:21;5.38;;;2.00;;
41532;SDS011;27262;-35.248;149.138;2023-01-25T02:24:12;5.53;;;2.70;;
41532;SDS011;27262;-35.248;149.138;2023-01-25T02:26:51;8.30;;;2.58;;
41532;SDS011;27262;-35.248;149.138;2023-01-25T02:29:22;10.68;;;2.17;;
41532;SDS011;27262;-35.248;149.138;2023-01-25T02:32:00;5.68;;;2.13;;
41532;SDS011;27262;-35.248;149.138;2023-01-25T02:34:32;4.82;;;2.00;;
41532;SDS011;27262;-35.248;149.138;2023-01-25T02:37:03;6.03;;;2.30;;
41532;SDS011;27262;-35.248;149.138;2023-01-25T02:39:34;4.35;;;1.73;;
41532;SDS011;27262;-35.248;149.138;2023-01-25T02:42:07;6.35;;;1.70;;
41532;SDS011;27262;-35.248;149.138;2023-01-25T02:44:41;7.43;;;2.10;;
41532;SDS011;27262;-35.248;149.138;2023-01-25T02:47:15;3.47;;;2.08;;
41532;SDS011;27262;-35.248;149.138;2023-01-25T02:49:48;3.47;;;2.00;;
41532;SDS011;27262;-35.248;149.138;2023-01-25T02:52:21;3.95;;;1.92;;
41532;SDS011;27262;-35.248;149.138;2023-01-25T02:54:52;6.43;;;1.98;;
41532;SDS011;27262;-35.248;149.138;2023-01-25T02:57:23;3.88;;;2.05;;
41532;SDS011;27262;-35.248;149.138;2023-01-25T02:59:53;5.63;;;2.00;;
41532;SDS011;27262;-35.248;149.138;2023-01-25T03:02:27;5.90;;;1.90;;
41532;SDS011;27262;-35.248;149.138;2023-01-25T03:05:04;3.95;;;1.75;;
41532;SDS011;27262;-35.248;149.138;2023-01-25T03:07:35;5.70;;;1.80;;
41532;SDS011;27262;-35.248;149.138;2023-01-25T03:10:11;3.45;;;1.58;;
41532;SDS011;27262;-35.248;149.138;2023-01-25T03:12:48;3.33;;;1.65;;
41532;SDS011;27262;-35.248;149.138;2023-01-25T03:15:18;2.72;;;1.38;;
41532;SDS011;27262;-35.248;149.138;2023-01-25T03:17:49;3.88;;;1.63;;
41532;SDS011;27262;-35.248;149.138;2023-01-25T03:20:22;2.92;;;1.75;;
41532;SDS011;27262;-35.248;149.138;2023-01-25T03:22:56;3.60;;;1.38;;
41532;SDS011;27262;-35.248;149.138;2023-01-25T03:25:30;2.97;;;1.70;;
41532;SDS011;27262;-35.248;149.138;2023-01-25T03:28:00;4.57;;;1.50;;
41532;SDS011;27262;-35.248;149.138;2023-01-25T03:30:31;2.97;;;1.60;;
41532;SDS011;27262;-35.248;149.138;2023-01-25T03:33:04;2.22;;;1.60;;
41532;SDS011;27262;-35.248;149.138;2023-01-25T03:35:41;3.00;;;1.35;;
41532;SDS011;27262;-35.248;149.138;2023-01-25T03:38:21;2.63;;;1.50;;
41532;SDS011;27262;-35.248;149.138;2023-01-25T03:41:02;3.80;;;1.30;;
41532;SDS011;27262;-35.248;149.138;2023-01-25T03:43:32;4.28;;;1.70;;
41532;SDS011;27262;-35.248;149.138;2023-01-25T03:46:06;3.47;;;1.60;;
41532;SDS011;27262;-35.248;149.138;2023-01-25T03:48:45;3.33;;;1.30;;
41532;SDS011;27262;-35.248;149.138;2023-01-25T03:51:16;3.03;;;1.42;;
41532;SDS011;27262;-35.248;149.138;2023-01-25T03:53:52;4.10;;;1.63;;
41532;SDS011;27262;-35.248;149.138;2023-01-25T03:56:22;4.97;;;1.48;;
41532;SDS011;27262;-35.248;149.138;2023-01-25T03:59:02;3.25;;;1.50;;
41532;SDS011;27262;-35.248;149.138;2023-01-25T04:01:33;5.38;;;1.38;;
41532;SDS011;27262;-35.248;149.138;2023-01-25T04:04:03;2.05;;;1.25;;
41532;SDS011;27262;-35.248;149.138;2023-01-25T04:06:40;3.25;;;1.20;;
41532;SDS011;27262;-35.248;149.138;2023-01-25T04:09:13;3.10;;;1.70;;
41532;SDS011;27262;-35.248;149.138;2023-01-25T04:11:44;3.15;;;1.25;;
41532;SDS011;27262;-35.248;149.138;2023-01-25T04:14:20;2.00;;;1.08;;
41532;SDS011;27262;-35.248;149.138;2023-01-25T04:17:15;1.98;;;1.00;;
41532;SDS011;27262;-35.248;149.138;2023-01-25T04:19:55;1.65;;;1.13;;
41532;SDS011;27262;-35.248;149.138;2023-01-25T04:22:30;3.00;;;1.20;;
41532;SDS011;27262;-35.248;149.138;2023-01-25T04:25:01;2.28;;;1.00;;
41532;SDS011;27262;-35.248;149.138;2023-01-25T04:27:38;3.13;;;1.20;;
41532;SDS011;27262;-35.248;149.138;2023-01-25T04:30:08;1.35;;;1.05;;
41532;SDS011;27262;-35.248;149.138;2023-01-25T04:32:41;2.10;;;0.80;;
41532;SDS011;27262;-35.248;149.138;2023-01-25T04:35:19;1.98;;;1.00;;
41532;SDS011;27262;-35.248;149.138;2023-01-25T04:38:01;2.25;;;1.10;;
41532;SDS011;27262;-35.248;149.138;2023-01-25T04:40:37;2.08;;;1.10;;
41532;SDS011;27262;-35.248;149.138;2023-01-25T04:43:14;1.27;;;0.90;;
41532;SDS011;27262;-35.248;149.138;2023-01-25T04:46:00;1.50;;;1.10;;
41532;SDS011;27262;-35.248;149.138;2023-01-25T04:48:33;1.38;;;0.90;;
41532;SDS011;27262;-35.248;149.138;2023-01-25T04:51:07;1.70;;;0.90;;
41532;SDS011;27262;-35.248;149.138;2023-01-25T04:53:40;2.03;;;1.10;;
41532;SDS011;27262;-35.248;149.138;2023-01-25T04:56:12;1.10;;;0.80;;
41532;SDS011;27262;-35.248;149.138;2023-01-25T04:58:46;0.85;;;0.70;;
41532;SDS011;27262;-35.248;149.138;2023-01-25T05:01:23;1.30;;;0.80;;
41532;SDS011;27262;-35.248;149.138;2023-01-25T05:03:59;1.80;;;0.85;;
41532;SDS011;27262;-35.248;149.138;2023-01-25T05:06:30;2.42;;;0.80;;
41532;SDS011;27262;-35.248;149.138;2023-01-25T05:09:04;1.63;;;1.00;;
41532;SDS011;27262;-35.248;149.138;2023-01-25T05:11:47;1.25;;;0.77;;
41532;SDS011;27262;-35.248;149.138;2023-01-25T05:14:18;2.08;;;1.05;;
41532;SDS011;27262;-35.248;149.138;2023-01-25T05:16:55;0.75;;;0.73;;
41532;SDS011;27262;-35.248;149.138;2023-01-25T05:19:25;0.80;;;0.70;;
41532;SDS011;27262;-35.248;149.138;2023-01-25T05:21:55;0.68;;;0.57;;
41532;SDS011;27262;-35.248;149.138;2023-01-25T05:24:29;2.13;;;0.98;;
41532;SDS011;27262;-35.248;149.138;2023-01-25T05:27:01;0.98;;;0.80;;
41532;SDS011;27262;-35.248;149.138;2023-01-25T05:29:33;2.35;;;0.90;;
41532;SDS011;27262;-35.248;149.138;2023-01-25T05:32:11;2.80;;;1.08;;
41532;SDS011;27262;-35.248;149.138;2023-01-25T05:34:47;2.17;;;0.95;;
41532;SDS011;27262;-35.248;149.138;2023-01-25T05:37:18;1.25;;;0.75;;
41532;SDS011;27262;-35.248;149.138;2023-01-25T05:39:49;1.05;;;0.70;;
41532;SDS011;27262;-35.248;149.138;2023-01-25T05:42:19;2.10;;;0.70;;
41532;SDS011;27262;-35.248;149.138;2023-01-25T05:44:50;1.75;;;0.90;;
41532;SDS011;27262;-35.248;149.138;2023-01-25T05:47:22;1.75;;;0.80;;
41532;SDS011;27262;-35.248;149.138;2023-01-25T05:49:52;1.40;;;0.70;;
41532;SDS011;27262;-35.248;149.138;2023-01-25T05:52:23;1.77;;;0.90;;
41532;SDS011;27262;-35.248;149.138;2023-01-25T05:54:54;3.50;;;0.75;;
41532;SDS011;27262;-35.248;149.138;2023-01-25T05:57:24;2.42;;;0.88;;
41532;SDS011;27262;-35.248;149.138;2023-01-25T05:59:56;0.77;;;0.73;;
41532;SDS011;27262;-35.248;149.138;2023-01-25T06:02:26;1.80;;;0.82;;
41532;SDS011;27262;-35.248;149.138;2023-01-25T06:04:57;4.32;;;0.85;;
41532;SDS011;27262;-35.248;149.138;2023-01-25T06:07:27;0.70;;;0.70;;
41532;SDS011;27262;-35.248;149.138;2023-01-25T06:09:58;1.98;;;0.70;;
41532;SDS011;27262;-35.248;149.138;2023-01-25T06:12:28;2.80;;;1.00;;
41532;SDS011;27262;-35.248;149.138;2023-01-25T06:14:58;2.22;;;0.82;;
41532;SDS011;27262;-35.248;149.138;2023-01-25T06:17:29;0.52;;;0.52;;
41532;SDS011;27262;-35.248;149.138;2023-01-25T06:19:59;1.95;;;0.88;;
41532;SDS011;27262;-35.248;149.138;2023-01-25T06:22:29;1.13;;;0.75;;
41532;SDS011;27262;-35.248;149.138;2023-01-25T06:24:59;1.13;;;0.68;;
41532;SDS011;27262;-35.248;149.138;2023-01-25T06:27:30;0.98;;;0.80;;
41532;SDS011;27262;-35.248;149.138;2023-01-25T06:30:00;1.45;;;0.75;;
41532;SDS011;27262;-35.248;149.138;2023-01-25T06:32:31;0.82;;;0.60;;
41532;SDS011;27262;-35.248;149.138;2023-01-25T06:35:01;0.90;;;0.77;;
41532;SDS011;27262;-35.248;149.138;2023-01-25T06:37:33;1.23;;;0.80;;
41532;SDS011;27262;-35.248;149.138;2023-01-25T06:40:03;1.17;;;0.60;;
41532;SDS011;27262;-35.248;149.138;2023-01-25T06:42:34;0.60;;;0.60;;
41532;SDS011;27262;-35.248;149.138;2023-01-25T06:45:04;1.65;;;0.63;;
41532;SDS011;27262;-35.248;149.138;2023-01-25T06:47:36;1.67;;;0.70;;
41532;SDS011;27262;-35.248;149.138;2023-01-25T06:50:06;1.48;;;0.80;;
41532;SDS011;27262;-35.248;149.138;2023-01-25T06:52:37;2.25;;;0.75;;
41532;SDS011;27262;-35.248;149.138;2023-01-25T06:55:08;1.70;;;0.68;;
41532;SDS011;27262;-35.248;149.138;2023-01-25T06:57:41;0.88;;;0.68;;
41532;SDS011;27262;-35.248;149.138;2023-01-25T07:00:11;3.35;;;0.60;;
41532;SDS011;27262;-35.248;149.138;2023-01-25T07:02:43;2.80;;;0.70;;
41532;SDS011;27262;-35.248;149.138;2023-01-25T07:05:13;2.25;;;1.00;;
41532;SDS011;27262;-35.248;149.138;2023-01-25T07:07:44;2.83;;;0.85;;
41532;SDS011;27262;-35.248;149.138;2023-01-25T07:10:15;1.38;;;0.70;;
41532;SDS011;27262;-35.248;149.138;2023-01-25T07:12:45;2.35;;;0.70;;
41532;SDS011;27262;-35.248;149.138;2023-01-25T07:15:15;3.67;;;0.82;;
41532;SDS011;27262;-35.248;149.138;2023-01-25T07:17:45;2.60;;;0.77;;
41532;SDS011;27262;-35.248;149.138;2023-01-25T07:20:16;2.05;;;0.70;;
41532;SDS011;27262;-35.248;149.138;2023-01-25T07:22:46;2.55;;;0.80;;
41532;SDS011;27262;-35.248;149.138;2023-01-25T07:25:16;1.92;;;0.85;;
41532;SDS011;27262;-35.248;149.138;2023-01-25T07:27:46;2.30;;;0.70;;
41532;SDS011;27262;-35.248;149.138;2023-01-25T07:30:17;6.85;;;0.98;;
41532;SDS011;27262;-35.248;149.138;2023-01-25T07:32:49;1.00;;;0.65;;
41532;SDS011;27262;-35.248;149.138;2023-01-25T07:35:19;3.35;;;0.75;;
41532;SDS011;27262;-35.248;149.138;2023-01-25T07:37:49;4.85;;;0.80;;
41532;SDS011;27262;-35.248;149.138;2023-01-25T07:40:19;2.90;;;0.70;;
41532;SDS011;27262;-35.248;149.138;2023-01-25T07:42:52;1.38;;;0.60;;
41532;SDS011;27262;-35.248;149.138;2023-01-25T07:45:23;0.60;;;0.50;;
41532;SDS011;27262;-35.248;149.138;2023-01-25T07:48:06;1.83;;;0.75;;
41532;SDS011;27262;-35.248;149.138;2023-01-25T07:50:38;1.55;;;0.70;;
41532;SDS011;27262;-35.248;149.138;2023-01-25T07:53:09;2.83;;;0.52;;
41532;SDS011;27262;-35.248;149.138;2023-01-25T07:55:39;3.60;;;0.70;;
41532;SDS011;27262;-35.248;149.138;2023-01-25T07:58:10;3.75;;;0.93;;
41532;SDS011;27262;-35.248;149.138;2023-01-25T08:00:40;2.05;;;0.80;;
41532;SDS011;27262;-35.248;149.138;2023-01-25T08:03:10;4.05;;;0.90;;
41532;SDS011;27262;-35.248;149.138;2023-01-25T08:05:44;2.28;;;0.70;;
41532;SDS011;27262;-35.248;149.138;2023-01-25T08:08:15;3.08;;;0.70;;
41532;SDS011;27262;-35.248;149.138;2023-01-25T08:10:45;3.38;;;0.85;;
41532;SDS011;27262;-35.248;149.138;2023-01-25T08:13:15;3.88;;;0.90;;
41532;SDS011;27262;-35.248;149.138;2023-01-25T08:15:51;0.60;;;0.55;;
41532;SDS011;27262;-35.248;149.138;2023-01-25T08:18:22;1.38;;;0.80;;
41532;SDS011;27262;-35.248;149.138;2023-01-25T08:20:56;1.70;;;0.77;;
41532;SDS011;27262;-35.248;149.138;2023-01-25T08:23:27;2.92;;;0.70;;
41532;SDS011;27262;-35.248;149.138;2023-01-25T08:26:04;0.60;;;0.60;;
41532;SDS011;27262;-35.248;149.138;2023-01-25T08:28:35;0.88;;;0.60;;
41532;SDS011;27262;-35.248;149.138;2023-01-25T08:31:07;1.00;;;0.52;;
41532;SDS011;27262;-35.248;149.138;2023-01-25T08:33:46;0.63;;;0.50;;
41532;SDS011;27262;-35.248;149.138;2023-01-25T08:36:17;2.50;;;0.50;;
41532;SDS011;27262;-35.248;149.138;2023-01-25T08:38:52;0.82;;;0.70;;
41532;SDS011;27262;-35.248;149.138;2023-01-25T08:41:27;2.42;;;1.02;;
41532;SDS011;27262;-35.248;149.138;2023-01-25T08:43:58;0.90;;;0.65;;
41532;SDS011;27262;-35.248;149.138;2023-01-25T08:46:29;1.65;;;0.70;;
41532;SDS011;27262;-35.248;149.138;2023-01-25T08:49:01;1.55;;;0.80;;
41532;SDS011;27262;-35.248;149.138;2023-01-25T08:51:32;3.20;;;1.20;;
41532;SDS011;27262;-35.248;149.138;2023-01-25T08:54:06;1.13;;;0.70;;
41532;SDS011;27262;-35.248;149.138;2023-01-25T08:56:39;2.33;;;1.13;;
41532;SDS011;27262;-35.248;149.138;2023-01-25T08:59:11;1.00;;;0.80;;
41532;SDS011;27262;-35.248;149.138;2023-01-25T09:01:41;1.58;;;1.25;;
41532;SDS011;27262;-35.248;149.138;2023-01-25T09:04:12;2.65;;;1.02;;
41532;SDS011;27262;-35.248;149.138;2023-01-25T09:06:42;2.33;;;0.98;;
41532;SDS011;27262;-35.248;149.138;2023-01-25T09:09:12;1.90;;;1.27;;
41532;SDS011;27262;-35.248;149.138;2023-01-25T09:11:43;2.35;;;1.23;;
41532;SDS011;27262;-35.248;149.138;2023-01-25T09:14:13;1.60;;;1.02;;
41532;SDS011;27262;-35.248;149.138;2023-01-25T09:16:43;1.42;;;0.70;;
41532;SDS011;27262;-35.248;149.138;2023-01-25T09:19:14;1.45;;;1.10;;
41532;SDS011;27262;-35.248;149.138;2023-01-25T09:21:44;1.15;;;0.88;;
41532;SDS011;27262;-35.248;149.138;2023-01-25T09:24:15;1.88;;;0.73;;
41532;SDS011;27262;-35.248;149.138;2023-01-25T09:26:46;1.50;;;1.00;;
41532;SDS011;27262;-35.248;149.138;2023-01-25T09:29:25;1.45;;;0.80;;
41532;SDS011;27262;-35.248;149.138;2023-01-25T09:31:56;1.05;;;0.95;;
41532;SDS011;27262;-35.248;149.138;2023-01-25T09:34:27;0.93;;;0.70;;
41532;SDS011;27262;-35.248;149.138;2023-01-25T09:36:57;1.30;;;0.60;;
41532;SDS011;27262;-35.248;149.138;2023-01-25T09:39:28;0.77;;;0.73;;
41532;SDS011;27262;-35.248;149.138;2023-01-25T09:45:06;1.95;;;0.60;;
41532;SDS011;27262;-35.248;149.138;2023-01-25T09:47:50;1.85;;;0.77;;
41532;SDS011;27262;-35.248;149.138;2023-01-25T09:56:14;0.85;;;0.85;;
41532;SDS011;27262;-35.248;149.138;2023-01-25T09:58:47;2.03;;;0.82;;
41532;SDS011;27262;-35.248;149.138;2023-01-25T10:06:54;1.15;;;1.02;;
41532;SDS011;27262;-35.248;149.138;2023-01-25T10:12:18;0.93;;;0.80;;
41532;SDS011;27262;-35.248;149.138;2023-01-25T10:14:50;0.98;;;0.90;;
41532;SDS011;27262;-35.248;149.138;2023-01-25T10:17:25;6.75;;;1.40;;
41532;SDS011;27262;-35.248;149.138;2023-01-25T10:23:21;1.02;;;0.60;;
41532;SDS011;27262;-35.248;149.138;2023-01-25T10:25:57;1.30;;;0.73;;
41532;SDS011;27262;-35.248;149.138;2023-01-25T10:31:21;1.27;;;0.75;;
41532;SDS011;27262;-35.248;149.138;2023-01-25T10:34:01;1.30;;;0.70;;
41532;SDS011;27262;-35.248;149.138;2023-01-25T10:36:56;0.68;;;0.60;;
41532;SDS011;27262;-35.248;149.138;2023-01-25T10:39:32;0.85;;;0.63;;
41532;SDS011;27262;-35.248;149.138;2023-01-25T10:42:08;0.98;;;0.75;;
41532;SDS011;27262;-35.248;149.138;2023-01-25T10:44:43;1.30;;;0.75;;
41532;SDS011;27262;-35.248;149.138;2023-01-25T10:49:50;0.95;;;0.80;;
41532;SDS011;27262;-35.248;149.138;2023-01-25T10:52:25;0.93;;;0.82;;
41532;SDS011;27262;-35.248;149.138;2023-01-25T11:03:01;3.05;;;0.88;;
41532;SDS011;27262;-35.248;149.138;2023-01-25T11:05:37;2.38;;;0.77;;
41532;SDS011;27262;-35.248;149.138;2023-01-25T11:10:59;2.55;;;1.15;;
41532;SDS011;27262;-35.248;149.138;2023-01-25T11:13:45;0.85;;;0.80;;
41532;SDS011;27262;-35.248;149.138;2023-01-25T11:18:55;5.82;;;0.80;;
41532;SDS011;27262;-35.248;149.138;2023-01-25T11:21:31;1.35;;;0.80;;
41532;SDS011;27262;-35.248;149.138;2023-01-25T11:26:38;5.95;;;1.10;;
41532;SDS011;27262;-35.248;149.138;2023-01-25T11:29:14;4.50;;;0.88;;
41532;SDS011;27262;-35.248;149.138;2023-01-25T11:31:48;2.30;;;0.70;;
41532;SDS011;27262;-35.248;149.138;2023-01-25T11:34:25;1.88;;;0.90;;
41532;SDS011;27262;-35.248;149.138;2023-01-25T11:37:04;0.73;;;0.65;;
41532;SDS011;27262;-35.248;149.138;2023-01-25T11:51:32;1.77;;;1.00;;
41532;SDS011;27262;-35.248;149.138;2023-01-25T11:57:33;2.58;;;1.00;;
41532;SDS011;27262;-35.248;149.138;2023-01-25T12:03:15;1.50;;;0.82;;
41532;SDS011;27262;-35.248;149.138;2023-01-25T12:12:00;0.93;;;0.70;;
41532;SDS011;27262;-35.248;149.138;2023-01-25T12:14:30;2.50;;;0.98;;
41532;SDS011;27262;-35.248;149.138;2023-01-25T12:17:45;1.10;;;1.00;;
41532;SDS011;27262;-35.248;149.138;2023-01-25T12:23:24;1.65;;;0.90;;
41532;SDS011;27262;-35.248;149.138;2023-01-25T12:26:39;2.10;;;0.88;;
41532;SDS011;27262;-35.248;149.138;2023-01-25T12:29:38;1.52;;;1.00;;
41532;SDS011;27262;-35.248;149.138;2023-01-25T12:32:39;1.35;;;1.00;;
41532;SDS011;27262;-35.248;149.138;2023-01-25T12:41:38;0.70;;;0.68;;
41532;SDS011;27262;-35.248;149.138;2023-01-25T12:47:19;4.28;;;0.90;;
41532;SDS011;27262;-35.248;149.138;2023-01-25T12:50:14;1.17;;;1.00;;
41532;SDS011;27262;-35.248;149.138;2023-01-25T12:52:57;1.20;;;0.93;;
41532;SDS011;27262;-35.248;149.138;2023-01-25T12:55:30;3.30;;;1.20;;
41532;SDS011;27262;-35.248;149.138;2023-01-25T13:01:17;1.02;;;0.77;;
41532;SDS011;27262;-35.248;149.138;2023-01-25T13:06:40;1.67;;;0.90;;
41532;SDS011;27262;-35.248;149.138;2023-01-25T13:12:21;1.10;;;0.90;;
41532;SDS011;27262;-35.248;149.138;2023-01-25T13:14:52;1.67;;;1.17;;
41532;SDS011;27262;-35.248;149.138;2023-01-25T13:17:29;3.83;;;0.90;;
41532;SDS011;27262;-35.248;149.138;2023-01-25T13:20:43;1.58;;;0.82;;
41532;SDS011;27262;-35.248;149.138;2023-01-25T13:28:56;1.98;;;0.90;;
41532;SDS011;27262;-35.248;149.138;2023-01-25T13:37:17;1.05;;;0.70;;
41532;SDS011;27262;-35.248;149.138;2023-01-25T13:42:44;0.90;;;0.73;;
41532;SDS011;27262;-35.248;149.138;2023-01-25T13:45:45;2.47;;;0.93;;
41532;SDS011;27262;-35.248;149.138;2023-01-25T13:50:52;2.63;;;0.90;;
41532;SDS011;27262;-35.248;149.138;2023-01-25T13:53:26;1.73;;;0.80;;
41532;SDS011;27262;-35.248;149.138;2023-01-25T13:56:01;2.83;;;1.17;;
41532;SDS011;27262;-35.248;149.138;2023-01-25T13:58:32;1.55;;;0.80;;
41532;SDS011;27262;-35.248;149.138;2023-01-25T14:01:16;1.58;;;0.85;;
41532;SDS011;27262;-35.248;149.138;2023-01-25T14:03:57;1.85;;;0.98;;
41532;SDS011;27262;-35.248;149.138;2023-01-25T14:06:33;1.65;;;0.90;;
41532;SDS011;27262;-35.248;149.138;2023-01-25T14:09:16;1.13;;;0.90;;
41532;SDS011;27262;-35.248;149.138;2023-01-25T14:19:40;2.10;;;0.98;;
41532;SDS011;27262;-35.248;149.138;2023-01-25T14:30:19;3.35;;;0.82;;
41532;SDS011;27262;-35.248;149.138;2023-01-25T14:33:01;1.73;;;0.80;;
41532;SDS011;27262;-35.248;149.138;2023-01-25T14:35:48;2.95;;;0.90;;
41532;SDS011;27262;-35.248;149.138;2023-01-25T14:43:55;0.80;;;0.60;;
41532;SDS011;27262;-35.248;149.138;2023-01-25T14:46:28;2.03;;;0.80;;
41532;SDS011;27262;-35.248;149.138;2023-01-25T14:52:11;2.17;;;0.90;;
41532;SDS011;27262;-35.248;149.138;2023-01-25T14:54:49;0.90;;;0.70;;
41532;SDS011;27262;-35.248;149.138;2023-01-25T14:57:33;1.20;;;0.80;;
41532;SDS011;27262;-35.248;149.138;2023-01-25T15:00:21;1.05;;;0.70;;
41532;SDS011;27262;-35.248;149.138;2023-01-25T15:02:53;2.10;;;1.00;;
41532;SDS011;27262;-35.248;149.138;2023-01-25T15:05:27;1.25;;;0.82;;
41532;SDS011;27262;-35.248;149.138;2023-01-25T15:10:51;1.27;;;0.90;;
41532;SDS011;27262;-35.248;149.138;2023-01-25T15:13:46;1.05;;;0.70;;
41532;SDS011;27262;-35.248;149.138;2023-01-25T15:16:16;0.65;;;0.65;;
41532;SDS011;27262;-35.248;149.138;2023-01-25T15:18:50;0.70;;;0.70;;
41532;SDS011;27262;-35.248;149.138;2023-01-25T15:24:00;1.10;;;0.60;;
41532;SDS011;27262;-35.248;149.138;2023-01-25T15:26:34;1.45;;;0.85;;
41532;SDS011;27262;-35.248;149.138;2023-01-25T15:29:14;0.80;;;0.60;;
41532;SDS011;27262;-35.248;149.138;2023-01-25T15:31:48;1.55;;;0.70;;
41532;SDS011;27262;-35.248;149.138;2023-01-25T15:34:20;1.20;;;0.70;;
41532;SDS011;27262;-35.248;149.138;2023-01-25T15:36:54;0.98;;;0.80;;
41532;SDS011;27262;-35.248;149.138;2023-01-25T15:39:25;1.35;;;0.80;;
41532;SDS011;27262;-35.248;149.138;2023-01-25T15:41:56;0.75;;;0.70;;
41532;SDS011;27262;-35.248;149.138;2023-01-25T15:44:26;0.70;;;0.70;;
41532;SDS011;27262;-35.248;149.138;2023-01-25T15:46:57;1.40;;;1.00;;
41532;SDS011;27262;-35.248;149.138;2023-01-25T15:49:29;0.60;;;0.60;;
41532;SDS011;27262;-35.248;149.138;2023-01-25T15:51:59;1.40;;;0.73;;
41532;SDS011;27262;-35.248;149.138;2023-01-25T15:54:30;1.40;;;0.73;;
41532;SDS011;27262;-35.248;149.138;2023-01-25T15:57:00;0.98;;;0.75;;
41532;SDS011;27262;-35.248;149.138;2023-01-25T15:59:32;0.93;;;0.55;;
41532;SDS011;27262;-35.248;149.138;2023-01-25T16:02:02;1.13;;;0.75;;
41532;SDS011;27262;-35.248;149.138;2023-01-25T16:04:38;1.10;;;0.70;;
41532;SDS011;27262;-35.248;149.138;2023-01-25T16:07:09;0.77;;;0.75;;
41532;SDS011;27262;-35.248;149.138;2023-01-25T16:09:53;1.80;;;0.80;;
41532;SDS011;27262;-35.248;149.138;2023-01-25T16:12:23;1.20;;;0.73;;
41532;SDS011;27262;-35.248;149.138;2023-01-25T16:14:53;1.20;;;0.85;;
41532;SDS011;27262;-35.248;149.138;2023-01-25T16:17:25;1.23;;;0.60;;
41532;SDS011;27262;-35.248;149.138;2023-01-25T16:19:58;1.42;;;1.02;;
41532;SDS011;27262;-35.248;149.138;2023-01-25T16:22:28;0.80;;;0.70;;
41532;SDS011;27262;-35.248;149.138;2023-01-25T16:24:59;1.15;;;0.70;;
41532;SDS011;27262;-35.248;149.138;2023-01-25T16:27:32;1.13;;;0.70;;
41532;SDS011;27262;-35.248;149.138;2023-01-25T16:30:04;0.75;;;0.73;;
41532;SDS011;27262;-35.248;149.138;2023-01-25T16:32:36;1.73;;;0.88;;
41532;SDS011;27262;-35.248;149.138;2023-01-25T16:35:07;1.13;;;0.70;;
41532;SDS011;27262;-35.248;149.138;2023-01-25T16:37:38;1.67;;;0.90;;
41532;SDS011;27262;-35.248;149.138;2023-01-25T16:40:13;1.42;;;0.95;;
41532;SDS011;27262;-35.248;149.138;2023-01-25T16:42:51;1.10;;;0.85;;
41532;SDS011;27262;-35.248;149.138;2023-01-25T16:45:21;0.70;;;0.70;;
41532;SDS011;27262;-35.248;149.138;2023-01-25T16:47:52;2.05;;;0.70;;
41532;SDS011;27262;-35.248;149.138;2023-01-25T16:50:22;1.02;;;0.80;;
41532;SDS011;27262;-35.248;149.138;2023-01-25T16:52:53;0.93;;;0.85;;
41532;SDS011;27262;-35.248;149.138;2023-01-25T16:55:24;1.42;;;0.70;;
41532;SDS011;27262;-35.248;149.138;2023-01-25T16:57:54;1.45;;;0.77;;
41532;SDS011;27262;-35.248;149.138;2023-01-25T17:00:25;0.77;;;0.63;;
41532;SDS011;27262;-35.248;149.138;2023-01-25T17:02:55;1.33;;;0.77;;
41532;SDS011;27262;-35.248;149.138;2023-01-25T17:05:27;1.02;;;0.90;;
41532;SDS011;27262;-35.248;149.138;2023-01-25T17:08:00;0.90;;;0.82;;
41532;SDS011;27262;-35.248;149.138;2023-01-25T17:10:30;1.25;;;0.70;;
41532;SDS011;27262;-35.248;149.138;2023-01-25T17:13:04;0.85;;;0.60;;
41532;SDS011;27262;-35.248;149.138;2023-01-25T17:15:36;0.73;;;0.70;;